Time,TemperatureF,DewpointF,PressureIn,WindDirection,WindDirectionDegrees,WindSpeedMPH,WindSpeedGustMPH,Humidity,HourlyPrecipIn,Conditions,Clouds,dailyrainin,SoftwareType,DateUTC
2013-01-25 00:00:00,50.0,41.0,30.25,North,0,0.0,0.0,71,0.00,CLR,,0.00,WeatherDisplay:10.37,2013-01-25 05:00:00,
2013-01-25 00:01:00,50.0,41.0,30.25,North,0,0.0,0.0,71,0.00,CLR,,0.00,WeatherDisplay:10.37,2013-01-25 05:01:00,
2013-01-25 00:04:00,50.0,41.0,30.25,North,0,0.0,0.0,71,0.00,CLR,,0.00,WeatherDisplay:10.37,2013-01-25 05:04:00,
2013-01-25 00:09:00,50.0,41.3,30.25,North,0,0.0,0.0,72,0.00,CLR,,0.00,WeatherDisplay:10.37,2013-01-25 05:09:00,
2013-01-25 00:16:00,49.8,41.2,30.25,North,0,0.0,0.0,72,0.00,CLR,,0.00,WeatherDisplay:10.37,2013-01-25 05:16:00,
2013-01-25 00:21:00,49.6,41.0,30.25,North,0,0.0,0.0,72,0.00,CLR,,0.00,WeatherDisplay:10.37,2013-01-25 05:21:00,
2013-01-25 00:31:00,49.5,40.8,30.25,North,0,0.0,0.0,72,0.00,CLR,,0.00,WeatherDisplay:10.37,2013-01-25 05:31:00,
2013-01-25 00:36:00,49.5,41.2,30.25,North,0,0.0,0.0,73,0.00,CLR,,0.00,WeatherDisplay:10.37,2013-01-25 05:36:00,
2013-01-25 00:46:00,49.5,41.2,30.25,North,0,0.0,0.0,73,0.00,CLR,,0.00,WeatherDisplay:10.37,2013-01-25 05:46:00,
2013-01-25 00:51:00,49.5,41.2,30.25,North,0,0.0,0.0,73,0.00,CLR,,0.00,WeatherDisplay:10.37,2013-01-25 05:51:00,
2013-01-25 01:00:00,49.5,41.2,30.25,North,0,0.0,0.0,73,0.00,CLR,,0.00,WeatherDisplay:10.37,2013-01-25 06:00:00,
2013-01-25 01:01:00,49.5,41.5,30.25,North,0,0.0,0.0,74,0.00,CLR,,0.00,WeatherDisplay:10.37,2013-01-25 06:01:00,
2013-01-25 01:05:00,49.5,41.5,30.25,North,0,0.0,0.0,74,0.00,CLR,,0.00,WeatherDisplay:10.37,2013-01-25 06:05:00,
2013-01-25 01:10:00,49.5,41.5,30.25,North,0,0.0,0.0,74,0.00,CLR,,0.00,WeatherDisplay:10.37,2013-01-25 06:10:00,
2013-01-25 01:16:00,49.3,41.3,30.25,North,0,0.0,0.0,74,0.00,CLR,,0.00,WeatherDisplay:10.37,2013-01-25 06:16:00,
2013-01-25 01:21:00,49.3,41.3,30.25,North,0,0.0,0.0,74,0.00,CLR,,0.00,WeatherDisplay:10.37,2013-01-25 06:21:00,
2013-01-25 01:31:00,48.9,41.0,30.25,North,0,0.0,0.0,74,0.00,CLR,,0.00,WeatherDisplay:10.37,2013-01-25 06:31:00,
2013-01-25 01:36:00,48.9,41.0,30.25,North,0,0.0,0.0,74,0.00,CLR,,0.00,WeatherDisplay:10.37,2013-01-25 06:36:00,
2013-01-25 01:46:00,48.7,40.8,30.25,North,0,0.0,0.0,74,0.00,CLR,,0.00,WeatherDisplay:10.37,2013-01-25 06:46:00,
2013-01-25 01:51:00,48.6,40.6,30.25,North,0,0.0,0.0,74,0.00,CLR,,0.00,WeatherDisplay:10.37,2013-01-25 06:51:00,
2013-01-25 02:00:00,48.6,40.6,30.22,North,0,0.0,0.0,74,0.00,CLR,,0.00,WeatherDisplay:10.37,2013-01-25 07:00:00,
2013-01-25 02:01:00,48.7,41.2,30.22,North,0,0.0,0.0,75,0.00,CLR,,0.00,WeatherDisplay:10.37,2013-01-25 07:01:00,
2013-01-25 02:05:00,48.6,41.0,30.22,North,0,0.0,0.0,75,0.00,CLR,,0.00,WeatherDisplay:10.37,2013-01-25 07:05:00,
2013-01-25 02:10:00,48.7,41.2,30.22,North,0,0.0,0.0,75,0.00,CLR,,0.00,WeatherDisplay:10.37,2013-01-25 07:10:00,
2013-01-25 02:16:00,48.7,41.2,30.22,North,0,0.0,0.0,75,0.00,CLR,,0.00,WeatherDisplay:10.37,2013-01-25 07:16:00,
2013-01-25 02:21:00,48.7,41.2,30.22,North,0,0.0,0.0,75,0.00,CLR,,0.00,WeatherDisplay:10.37,2013-01-25 07:21:00,
2013-01-25 02:31:00,48.6,41.0,30.22,North,0,0.0,0.0,75,0.00,CLR,,0.00,WeatherDisplay:10.37,2013-01-25 07:31:00,
2013-01-25 02:36:00,48.6,41.0,30.22,North,0,0.0,0.0,75,0.00,CLR,,0.00,WeatherDisplay:10.37,2013-01-25 07:36:00,
2013-01-25 02:46:00,48.6,41.0,30.19,North,0,0.0,0.0,75,0.00,CLR,,0.00,WeatherDisplay:10.37,2013-01-25 07:46:00,
2013-01-25 02:51:00,48.6,41.3,30.19,North,0,0.0,0.0,76,0.00,CLR,,0.00,WeatherDisplay:10.37,2013-01-25 07:51:00,
2013-01-25 03:00:00,48.6,41.3,30.19,North,0,0.0,0.0,76,0.00,CLR,,0.00,WeatherDisplay:10.37,2013-01-25 08:00:00,
2013-01-25 03:01:00,48.2,41.0,30.19,North,0,0.0,0.0,76,0.00,CLR,,0.00,WeatherDisplay:10.37,2013-01-25 08:01:00,
2013-01-25 03:05:00,48.4,41.2,30.19,North,0,0.0,0.0,76,0.00,CLR,,0.00,WeatherDisplay:10.37,2013-01-25 08:05:00,
2013-01-25 03:10:00,48.2,41.0,30.19,North,0,0.0,0.0,76,0.00,CLR,,0.00,WeatherDisplay:10.37,2013-01-25 08:10:00,
2013-01-25 03:16:00,48.0,40.8,30.19,North,0,0.0,0.0,76,0.00,CLR,,0.00,WeatherDisplay:10.37,2013-01-25 08:16:00,
2013-01-25 03:21:00,47.8,40.6,30.19,North,0,0.0,0.0,76,0.00,CLR,,0.00,WeatherDisplay:10.37,2013-01-25 08:21:00,
2013-01-25 03:31:00,47.8,40.6,30.19,North,0,0.0,0.0,76,0.00,CLR,,0.00,WeatherDisplay:10.37,2013-01-25 08:31:00,
2013-01-25 03:36:00,47.8,40.6,30.19,North,0,0.0,0.0,76,0.00,CLR,,0.00,WeatherDisplay:10.37,2013-01-25 08:36:00,
2013-01-25 03:46:00,48.0,41.2,30.19,North,0,0.0,0.0,77,0.00,FEW,,0.00,WeatherDisplay:10.37,2013-01-25 08:46:00,
2013-01-25 03:51:00,47.8,41.0,30.19,North,0,0.0,0.0,77,0.00,FEW,,0.00,WeatherDisplay:10.37,2013-01-25 08:51:00,
2013-01-25 04:00:00,47.7,40.8,30.19,North,0,0.0,0.0,77,0.00,FEW,,0.00,WeatherDisplay:10.37,2013-01-25 09:00:00,
2013-01-25 04:01:00,47.5,40.6,30.19,North,0,0.0,0.0,77,0.00,CLR,,0.00,WeatherDisplay:10.37,2013-01-25 09:01:00,
2013-01-25 04:05:00,47.7,40.8,30.19,North,0,0.0,0.0,77,0.00,CLR,,0.00,WeatherDisplay:10.37,2013-01-25 09:05:00,
2013-01-25 04:10:00,47.5,40.6,30.19,North,0,0.0,0.0,77,0.00,CLR,,0.00,WeatherDisplay:10.37,2013-01-25 09:10:00,
2013-01-25 04:16:00,47.3,40.5,30.19,North,0,0.0,0.0,77,0.00,CLR,,0.00,WeatherDisplay:10.37,2013-01-25 09:16:00,
2013-01-25 04:21:00,47.3,40.5,30.19,North,0,0.0,0.0,77,0.00,CLR,,0.00,WeatherDisplay:10.37,2013-01-25 09:21:00,
2013-01-25 04:31:00,47.3,40.5,30.19,North,0,0.0,0.0,77,0.00,CLR,,0.00,WeatherDisplay:10.37,2013-01-25 09:31:00,
2013-01-25 04:36:00,47.1,40.3,30.19,North,0,0.0,0.0,77,0.00,CLR,,0.00,WeatherDisplay:10.37,2013-01-25 09:36:00,
2013-01-25 04:46:00,47.1,40.6,30.19,North,0,0.0,0.0,78,0.00,CLR,,0.00,WeatherDisplay:10.37,2013-01-25 09:46:00,
2013-01-25 04:51:00,47.1,40.6,30.19,North,0,0.0,0.0,78,0.00,CLR,,0.00,WeatherDisplay:10.37,2013-01-25 09:51:00,
2013-01-25 05:00:00,47.1,40.6,30.19,North,0,0.0,0.0,78,0.00,CLR,,0.00,WeatherDisplay:10.37,2013-01-25 10:00:00,
2013-01-25 05:01:00,47.1,40.6,30.19,North,0,0.0,0.0,78,0.00,CLR,,0.00,WeatherDisplay:10.37,2013-01-25 10:01:00,
2013-01-25 05:05:00,47.1,40.6,30.19,North,0,0.0,0.0,78,0.00,CLR,,0.00,WeatherDisplay:10.37,2013-01-25 10:05:00,
2013-01-25 05:10:00,47.1,40.6,30.19,North,0,0.0,0.0,78,0.00,CLR,,0.00,WeatherDisplay:10.37,2013-01-25 10:10:00,
2013-01-25 05:16:00,47.1,40.6,30.19,North,0,0.0,0.0,78,0.00,CLR,,0.00,WeatherDisplay:10.37,2013-01-25 10:16:00,
2013-01-25 05:21:00,47.1,40.6,30.19,North,0,0.0,0.0,78,0.00,CLR,,0.00,WeatherDisplay:10.37,2013-01-25 10:21:00,
2013-01-25 05:31:00,47.1,40.9,30.19,North,0,0.0,0.0,79,0.00,CLR,,0.00,WeatherDisplay:10.37,2013-01-25 10:31:00,
2013-01-25 05:36:00,47.1,40.9,30.19,North,0,0.0,0.0,79,0.00,CLR,,0.00,WeatherDisplay:10.37,2013-01-25 10:36:00,
2013-01-25 05:46:00,47.1,40.9,30.19,North,0,0.0,0.0,79,0.00,CLR,,0.00,WeatherDisplay:10.37,2013-01-25 10:46:00,
2013-01-25 05:51:00,47.1,40.9,30.19,North,0,0.0,0.0,79,0.00,CLR,,0.00,WeatherDisplay:10.37,2013-01-25 10:51:00,
2013-01-25 06:00:00,47.1,40.9,30.19,North,0,0.0,0.0,79,0.00,CLR,,0.00,WeatherDisplay:10.37,2013-01-25 11:00:00,
2013-01-25 06:01:00,46.9,40.8,30.19,North,0,0.0,0.0,79,0.00,CLR,,0.00,WeatherDisplay:10.37,2013-01-25 11:01:00,
2013-01-25 06:05:00,46.9,40.8,30.19,North,0,0.0,0.0,79,0.00,CLR,,0.00,WeatherDisplay:10.37,2013-01-25 11:05:00,
2013-01-25 06:10:00,46.9,40.8,30.19,North,0,0.0,0.0,79,0.00,CLR,,0.00,WeatherDisplay:10.37,2013-01-25 11:10:00,
2013-01-25 06:16:00,47.1,40.9,30.19,North,0,0.0,0.0,79,0.00,CLR,,0.00,WeatherDisplay:10.37,2013-01-25 11:16:00,
2013-01-25 06:21:00,47.3,41.4,30.19,North,0,0.0,0.0,80,0.00,CLR,,0.00,WeatherDisplay:10.37,2013-01-25 11:21:00,
2013-01-25 06:31:00,47.5,41.6,30.22,North,0,0.0,0.0,80,0.00,CLR,,0.00,WeatherDisplay:10.37,2013-01-25 11:31:00,
2013-01-25 06:36:00,47.3,41.4,30.22,North,0,0.0,0.0,80,0.00,CLR,,0.00,WeatherDisplay:10.37,2013-01-25 11:36:00,
2013-01-25 06:46:00,47.3,41.4,30.22,North,0,0.0,0.0,80,0.00,CLR,,0.00,WeatherDisplay:10.37,2013-01-25 11:46:00,
2013-01-25 06:51:00,47.3,41.4,30.22,North,0,0.0,0.0,80,0.00,CLR,,0.00,WeatherDisplay:10.37,2013-01-25 11:51:00,
2013-01-25 07:00:00,47.5,41.6,30.22,North,0,0.0,0.0,80,0.00,CLR,,0.00,WeatherDisplay:10.37,2013-01-25 12:00:00,
2013-01-25 07:01:00,47.7,41.8,30.22,North,0,0.0,0.0,80,0.00,CLR,,0.00,WeatherDisplay:10.37,2013-01-25 12:01:00,
2013-01-25 07:05:00,47.7,41.8,30.22,North,0,0.0,0.0,80,0.00,CLR,,0.00,WeatherDisplay:10.37,2013-01-25 12:05:00,
2013-01-25 07:10:00,47.7,41.8,30.22,North,0,0.0,0.0,80,0.00,CLR,,0.00,WeatherDisplay:10.37,2013-01-25 12:10:00,
2013-01-25 07:16:00,47.7,41.8,30.22,North,0,0.0,0.0,80,0.00,CLR,,0.00,WeatherDisplay:10.37,2013-01-25 12:16:00,
2013-01-25 07:21:00,47.7,41.8,30.22,North,0,0.0,0.0,80,0.00,CLR,,0.00,WeatherDisplay:10.37,2013-01-25 12:21:00,
2013-01-25 07:31:00,47.5,41.6,30.22,North,357,0.0,0.0,80,0.00,CLR,,0.00,WeatherDisplay:10.37,2013-01-25 12:31:00,
2013-01-25 07:36:00,47.5,41.9,30.22,North,0,0.0,0.0,81,0.00,CLR,,0.00,WeatherDisplay:10.37,2013-01-25 12:36:00,
2013-01-25 07:46:00,47.8,42.3,30.25,North,0,0.0,0.0,81,0.00,CLR,,0.00,WeatherDisplay:10.37,2013-01-25 12:46:00,
2013-01-25 07:51:00,48.0,42.8,30.25,North,0,0.0,0.0,82,0.00,CLR,,0.00,WeatherDisplay:10.37,2013-01-25 12:51:00,
2013-01-25 08:00:00,48.6,43.0,30.25,North,357,0.0,0.0,81,0.00,CLR,,0.00,WeatherDisplay:10.37,2013-01-25 13:00:00,
2013-01-25 08:01:00,49.1,43.8,30.25,North,1,0.0,0.0,82,0.00,CLR,,0.00,WeatherDisplay:10.37,2013-01-25 13:01:00,
2013-01-25 08:05:00,48.7,43.2,30.25,North,357,0.0,0.0,81,0.00,CLR,,0.00,WeatherDisplay:10.37,2013-01-25 13:05:00,
2013-01-25 08:10:00,48.9,43.7,30.25,North,357,0.0,0.0,82,0.00,CLR,,0.00,WeatherDisplay:10.37,2013-01-25 13:10:00,
2013-01-25 08:16:00,49.5,44.2,30.25,North,357,0.0,0.0,82,0.00,CLR,,0.00,WeatherDisplay:10.37,2013-01-25 13:16:00,
2013-01-25 08:21:00,49.8,44.5,30.25,North,0,0.0,0.0,82,0.00,CLR,,0.00,WeatherDisplay:10.37,2013-01-25 13:21:00,
2013-01-25 08:31:00,51.1,46.1,30.25,North,0,0.0,0.0,83,0.00,CLR,,0.00,WeatherDisplay:10.37,2013-01-25 13:31:00,
2013-01-25 08:36:00,52.2,47.2,30.25,North,0,0.0,0.0,83,0.00,CLR,,0.00,WeatherDisplay:10.37,2013-01-25 13:36:00,
2013-01-25 08:46:00,54.1,49.4,30.25,North,0,0.0,0.0,84,0.00,CLR,,0.00,WeatherDisplay:10.37,2013-01-25 13:46:00,
2013-01-25 08:51:00,55.4,50.6,30.25,North,1,0.0,0.0,84,0.00,CLR,,0.00,WeatherDisplay:10.37,2013-01-25 13:51:00,
2013-01-25 09:00:00,56.7,52.2,30.25,North,0,0.0,0.0,85,0.00,CLR,,0.00,WeatherDisplay:10.37,2013-01-25 14:00:00,
2013-01-25 09:01:00,57.9,53.1,30.25,North,357,0.0,0.0,84,0.00,CLR,,0.00,WeatherDisplay:10.37,2013-01-25 14:01:00,
2013-01-25 09:05:00,57.2,52.4,30.25,North,0,0.0,0.0,84,0.00,CLR,,0.00,WeatherDisplay:10.37,2013-01-25 14:05:00,
2013-01-25 09:10:00,57.9,53.1,30.25,North,0,0.0,0.0,84,0.00,CLR,,0.00,WeatherDisplay:10.37,2013-01-25 14:10:00,
2013-01-25 09:16:00,58.5,53.6,30.25,North,0,0.0,0.0,84,0.00,CLR,,0.00,WeatherDisplay:10.37,2013-01-25 14:16:00,
2013-01-25 09:21:00,58.8,54.3,30.25,North,0,0.0,0.0,85,0.00,CLR,,0.00,WeatherDisplay:10.37,2013-01-25 14:21:00,
2013-01-25 09:31:00,59.7,55.2,30.25,North,0,3.4,0.0,85,0.00,CLR,,0.00,WeatherDisplay:10.37,2013-01-25 14:31:00,
2013-01-25 09:36:00,60.1,55.6,30.25,NE,37,2.3,0.0,85,0.00,CLR,,0.00,WeatherDisplay:10.37,2013-01-25 14:36:00,
2013-01-25 09:46:00,60.4,56.2,30.25,ENE,75,4.0,4.0,86,0.00,CLR,,0.00,WeatherDisplay:10.37,2013-01-25 14:46:00,
2013-01-25 09:51:00,60.8,56.6,30.25,ESE,106,2.3,0.0,86,0.00,CLR,,0.00,WeatherDisplay:10.37,2013-01-25 14:51:00,
2013-01-25 10:00:00,61.5,57.6,30.27,ENE,59,2.3,0.0,87,0.00,CLR,,0.00,WeatherDisplay:10.37,2013-01-25 15:00:00,
2013-01-25 10:01:00,62.6,58.4,30.27,ESE,107,3.6,0.0,86,0.00,CLR,,0.00,WeatherDisplay:10.37,2013-01-25 15:01:00,
2013-01-25 10:05:00,62.1,58.1,30.27,East,84,3.4,3.4,87,0.00,CLR,,0.00,WeatherDisplay:10.37,2013-01-25 15:05:00,
2013-01-25 10:10:00,62.4,58.5,30.27,East,97,3.4,0.0,87,0.00,CLR,,0.00,WeatherDisplay:10.37,2013-01-25 15:10:00,
2013-01-25 10:16:00,63.0,58.7,30.27,NE,46,2.7,0.0,86,0.00,CLR,,0.00,WeatherDisplay:10.37,2013-01-25 15:16:00,
2013-01-25 10:21:00,63.3,58.4,30.27,ENE,76,3.4,0.0,84,0.00,CLR,,0.00,WeatherDisplay:10.37,2013-01-25 15:21:00,
2013-01-25 10:31:00,64.8,57.0,30.27,ENE,78,3.4,3.4,76,0.00,CLR,,0.00,WeatherDisplay:10.37,2013-01-25 15:31:00,
2013-01-25 10:36:00,65.3,55.7,30.27,ESE,108,4.6,4.6,71,0.00,CLR,,0.00,WeatherDisplay:10.37,2013-01-25 15:36:00,
2013-01-25 10:46:00,66.6,55.3,30.27,East,99,8.1,8.1,67,0.00,CLR,,0.00,WeatherDisplay:10.37,2013-01-25 15:46:00,
2013-01-25 10:51:00,66.9,51.7,30.27,ENE,64,3.6,3.6,58,0.00,CLR,,0.00,WeatherDisplay:10.37,2013-01-25 15:51:00,
2013-01-25 11:00:00,67.6,48.9,30.27,SE,126,3.6,0.0,51,0.00,CLR,,0.00,WeatherDisplay:10.37,2013-01-25 16:00:00,
2013-01-25 11:01:00,68.7,47.7,30.25,East,94,4.0,4.0,47,0.00,CLR,,0.00,WeatherDisplay:10.37,2013-01-25 16:01:00,
2013-01-25 11:05:00,68.0,48.1,30.27,East,84,2.7,0.0,49,0.00,CLR,,0.00,WeatherDisplay:10.37,2013-01-25 16:05:00,
2013-01-25 11:10:00,68.5,48.6,30.27,SSE,156,3.6,3.6,49,0.00,CLR,,0.00,WeatherDisplay:10.37,2013-01-25 16:10:00,
2013-01-25 11:16:00,69.3,47.6,30.25,ESE,115,3.6,3.6,46,0.00,CLR,,0.00,WeatherDisplay:10.37,2013-01-25 16:16:00,
2013-01-25 11:21:00,69.4,46.6,30.25,East,80,3.6,3.6,44,0.00,CLR,,0.00,WeatherDisplay:10.37,2013-01-25 16:21:00,
2013-01-25 11:31:00,70.2,43.4,30.25,ESE,102,5.8,5.8,38,0.00,CLR,,0.00,WeatherDisplay:10.37,2013-01-25 16:31:00,
2013-01-25 11:36:00,70.5,41.5,30.25,SE,139,4.0,4.0,35,0.00,CLR,,0.00,WeatherDisplay:10.37,2013-01-25 16:36:00,
2013-01-25 11:46:00,71.1,40.5,30.25,East,96,3.4,3.4,33,0.00,CLR,,0.00,WeatherDisplay:10.37,2013-01-25 16:46:00,
2013-01-25 11:51:00,71.4,41.6,30.25,SE,124,5.8,5.8,34,0.00,CLR,,0.00,WeatherDisplay:10.37,2013-01-25 16:51:00,
2013-01-25 12:00:00,71.8,39.5,30.25,ESE,102,4.9,4.9,31,0.00,CLR,,0.00,WeatherDisplay:10.37,2013-01-25 17:00:00,
2013-01-25 12:01:00,72.9,37.8,30.22,ENE,73,2.7,2.7,28,0.00,CLR,,0.00,WeatherDisplay:10.37,2013-01-25 17:01:00,
2013-01-25 12:05:00,72.3,40.0,30.25,North,0,3.4,0.0,31,0.00,CLR,,0.00,WeatherDisplay:10.37,2013-01-25 17:05:00,
2013-01-25 12:10:00,72.7,38.6,30.22,NE,44,3.4,3.4,29,0.00,CLR,,0.00,WeatherDisplay:10.37,2013-01-25 17:10:00,
2013-01-25 12:16:00,73.0,35.1,30.22,ESE,115,4.0,4.0,25,0.00,CLR,,0.00,WeatherDisplay:10.37,2013-01-25 17:16:00,
2013-01-25 12:21:00,73.4,37.4,30.22,North,353,4.6,4.6,27,0.00,CLR,,0.00,WeatherDisplay:10.37,2013-01-25 17:21:00,
2013-01-25 12:31:00,73.8,37.7,30.22,ESE,118,5.8,5.8,27,0.00,CLR,,0.00,WeatherDisplay:10.37,2013-01-25 17:31:00,
2013-01-25 12:36:00,74.1,38.9,30.22,NE,56,3.4,3.4,28,0.00,CLR,,0.00,WeatherDisplay:10.37,2013-01-25 17:36:00,
2013-01-25 12:46:00,74.3,38.1,30.22,NNE,27,3.4,0.0,27,0.00,CLR,,0.00,WeatherDisplay:10.37,2013-01-25 17:46:00,
2013-01-25 12:51:00,74.7,38.4,30.22,ESE,115,8.1,8.1,27,0.00,CLR,,0.00,WeatherDisplay:10.37,2013-01-25 17:51:00,
2013-01-25 13:00:00,75.2,35.9,30.22,ESE,107,3.1,0.0,24,0.00,CLR,,0.00,WeatherDisplay:10.37,2013-01-25 18:00:00,
2013-01-25 13:01:00,75.2,37.9,30.22,NE,44,4.6,4.6,26,0.00,CLR,,0.00,WeatherDisplay:10.37,2013-01-25 18:01:00,
2013-01-25 13:05:00,75.0,34.7,30.22,South,181,3.4,3.4,23,0.00,CLR,,0.00,WeatherDisplay:10.37,2013-01-25 18:05:00,
2013-01-25 13:10:00,75.2,36.9,30.22,East,88,4.6,4.6,25,0.00,CLR,,0.00,WeatherDisplay:10.37,2013-01-25 18:10:00,
2013-01-25 13:16:00,75.6,36.2,30.22,South,172,3.4,3.4,24,0.00,CLR,,0.00,WeatherDisplay:10.37,2013-01-25 18:16:00,
2013-01-25 13:21:00,75.6,34.0,30.22,WSW,248,5.8,5.8,22,0.00,CLR,,0.00,WeatherDisplay:10.37,2013-01-25 18:21:00,
2013-01-25 13:31:00,76.1,34.5,30.19,SSE,150,6.3,6.3,22,0.00,CLR,,0.00,WeatherDisplay:10.37,2013-01-25 18:31:00,
2013-01-25 13:36:00,76.3,34.6,30.19,SSW,192,5.4,5.4,22,0.00,CLR,,0.00,WeatherDisplay:10.37,2013-01-25 18:36:00,
2013-01-25 13:46:00,77.5,36.8,30.19,East,88,3.6,3.6,23,0.00,CLR,,0.00,WeatherDisplay:10.37,2013-01-25 18:46:00,
2013-01-25 13:51:00,77.7,34.7,30.19,NNW,329,3.4,3.4,21,0.00,CLR,,0.00,WeatherDisplay:10.37,2013-01-25 18:51:00,
2013-01-25 14:00:00,77.9,34.8,30.19,SW,217,6.9,6.9,21,0.00,CLR,,0.00,WeatherDisplay:10.37,2013-01-25 19:00:00,
2013-01-25 14:01:00,77.7,35.8,30.19,SE,133,3.4,3.4,22,0.00,CLR,,0.00,WeatherDisplay:10.37,2013-01-25 19:01:00,
2013-01-25 14:05:00,77.7,34.7,30.19,NNW,345,3.4,3.4,21,0.00,CLR,,0.00,WeatherDisplay:10.37,2013-01-25 19:05:00,
2013-01-25 14:10:00,77.7,35.8,30.19,South,171,4.6,4.6,22,0.00,CLR,,0.00,WeatherDisplay:10.37,2013-01-25 19:10:00,
2013-01-25 14:16:00,78.3,35.1,30.19,SE,141,3.4,3.4,21,0.00,CLR,,0.00,WeatherDisplay:10.37,2013-01-25 19:16:00,
2013-01-25 14:21:00,78.4,35.2,30.19,WSW,254,3.4,3.4,21,0.00,CLR,,0.00,WeatherDisplay:10.37,2013-01-25 19:21:00,
2013-01-25 14:31:00,77.7,34.7,30.19,West,262,4.6,4.6,21,0.00,CLR,,0.00,WeatherDisplay:10.37,2013-01-25 19:31:00,
2013-01-25 14:36:00,77.7,34.7,30.19,North,357,2.7,0.0,21,0.00,CLR,,0.00,WeatherDisplay:10.37,2013-01-25 19:36:00,
2013-01-25 14:46:00,75.9,35.4,30.19,SW,215,5.8,5.8,23,0.00,CLR,,0.00,WeatherDisplay:10.37,2013-01-25 19:46:00,
2013-01-25 14:51:00,76.1,36.7,30.19,WNW,284,6.3,6.3,24,0.00,CLR,,0.00,WeatherDisplay:10.37,2013-01-25 19:51:00,
2013-01-25 15:00:00,76.5,37.0,30.19,WNW,290,3.4,3.4,24,0.00,CLR,,0.00,WeatherDisplay:10.37,2013-01-25 20:00:00,
2013-01-25 15:01:00,75.9,36.5,30.19,North,353,3.4,4.0,24,0.00,CLR,,0.00,WeatherDisplay:10.37,2013-01-25 20:01:00,
2013-01-25 15:05:00,76.5,37.0,30.19,WNW,299,4.6,4.6,24,0.00,CLR,,0.00,WeatherDisplay:10.37,2013-01-25 20:05:00,
2013-01-25 15:10:00,75.9,36.5,30.19,WSW,240,5.8,5.8,24,0.00,CLR,,0.00,WeatherDisplay:10.37,2013-01-25 20:10:00,
2013-01-25 15:16:00,76.1,36.7,30.19,WSW,242,8.1,8.1,24,0.00,CLR,,0.00,WeatherDisplay:10.37,2013-01-25 20:16:00,
2013-01-25 15:21:00,76.3,35.7,30.19,SW,235,5.8,5.8,23,0.00,CLR,,0.00,WeatherDisplay:10.37,2013-01-25 20:21:00,
2013-01-25 15:31:00,76.5,38.0,30.19,NW,304,5.8,5.8,25,0.00,CLR,,0.00,WeatherDisplay:10.37,2013-01-25 20:31:00,
2013-01-25 15:36:00,76.8,37.3,30.19,SW,214,7.6,7.6,24,0.00,CLR,,0.00,WeatherDisplay:10.37,2013-01-25 20:36:00,
2013-01-25 15:46:00,77.2,36.5,30.19,SSW,200,5.8,5.8,23,0.00,CLR,,0.00,WeatherDisplay:10.37,2013-01-25 20:46:00,
2013-01-25 15:51:00,77.0,36.3,30.19,SSW,195,5.8,5.8,23,0.00,CLR,,0.00,WeatherDisplay:10.37,2013-01-25 20:51:00,
2013-01-25 16:00:00,76.3,36.8,30.19,WSW,238,6.7,6.7,24,0.00,CLR,,0.00,WeatherDisplay:10.37,2013-01-25 21:00:00,
2013-01-25 16:01:00,76.5,37.0,30.19,SW,226,5.8,5.8,24,0.00,CLR,,0.00,WeatherDisplay:10.37,2013-01-25 21:01:00,
2013-01-25 16:05:00,76.1,37.7,30.19,WNW,284,5.8,5.8,25,0.00,CLR,,0.00,WeatherDisplay:10.37,2013-01-25 21:05:00,
2013-01-25 16:10:00,76.5,38.0,30.19,South,175,4.0,4.0,25,0.00,CLR,,0.00,WeatherDisplay:10.37,2013-01-25 21:10:00,
2013-01-25 16:16:00,75.9,36.5,30.19,SW,220,6.3,6.3,24,0.00,CLR,,0.00,WeatherDisplay:10.37,2013-01-25 21:16:00,
2013-01-25 16:21:00,75.6,37.2,30.19,WSW,249,5.8,5.8,25,0.00,CLR,,0.00,WeatherDisplay:10.37,2013-01-25 21:21:00,
2013-01-25 16:31:00,75.7,37.4,30.19,SSW,194,3.6,3.6,25,0.00,CLR,,0.00,WeatherDisplay:10.37,2013-01-25 21:31:00,
2013-01-25 16:36:00,75.4,37.1,30.19,WSW,242,3.6,3.6,25,0.00,CLR,,0.00,WeatherDisplay:10.37,2013-01-25 21:36:00,
2013-01-25 16:46:00,74.1,35.0,30.19,West,273,4.0,4.0,24,0.00,CLR,,0.00,WeatherDisplay:10.37,2013-01-25 21:46:00,
2013-01-25 16:51:00,73.0,34.1,30.19,WSW,258,5.8,5.8,24,0.00,CLR,,0.00,WeatherDisplay:10.37,2013-01-25 21:51:00,
2013-01-25 17:00:00,72.0,33.2,30.19,SW,221,5.8,5.8,24,0.00,CLR,,0.00,WeatherDisplay:10.37,2013-01-25 22:00:00,
2013-01-25 17:01:00,71.1,33.4,30.19,WNW,292,5.8,5.8,25,0.00,CLR,,0.00,WeatherDisplay:10.37,2013-01-25 22:01:00,
2013-01-25 17:05:00,71.8,33.0,30.19,ESE,118,3.4,3.4,24,0.00,CLR,,0.00,WeatherDisplay:10.37,2013-01-25 22:05:00,
2013-01-25 17:10:00,71.1,33.4,30.19,NW,317,6.3,6.3,25,0.00,CLR,,0.00,WeatherDisplay:10.37,2013-01-25 22:10:00,
2013-01-25 17:16:00,70.5,33.0,30.19,SW,229,4.0,4.0,25,0.00,CLR,,0.00,WeatherDisplay:10.37,2013-01-25 22:16:00,
2013-01-25 17:21:00,70.2,32.7,30.19,WSW,257,3.4,0.0,25,0.00,CLR,,0.00,WeatherDisplay:10.37,2013-01-25 22:21:00,
2013-01-25 17:31:00,69.4,34.0,30.19,West,274,5.8,5.8,27,0.00,CLR,,0.00,WeatherDisplay:10.37,2013-01-25 22:31:00,
2013-01-25 17:36:00,69.1,35.5,30.19,West,280,5.8,5.8,29,0.00,CLR,,0.00,WeatherDisplay:10.37,2013-01-25 22:36:00,
2013-01-25 17:46:00,68.4,37.3,30.19,WNW,290,4.9,4.9,32,0.00,CLR,,0.00,WeatherDisplay:10.37,2013-01-25 22:46:00,
2013-01-25 17:51:00,68.0,37.0,30.19,West,275,2.3,0.0,32,0.00,CLR,,0.00,WeatherDisplay:10.37,2013-01-25 22:51:00,
2013-01-25 18:00:00,67.5,37.3,30.19,WNW,296,3.4,0.0,33,0.00,CLR,,0.00,WeatherDisplay:10.37,2013-01-25 23:00:00,
2013-01-25 18:01:00,66.6,36.5,30.19,WNW,293,3.4,3.4,33,0.00,CLR,,0.00,WeatherDisplay:10.37,2013-01-25 23:01:00,
2013-01-25 18:05:00,67.1,37.0,30.19,West,276,4.6,4.6,33,0.00,CLR,,0.00,WeatherDisplay:10.37,2013-01-25 23:05:00,
2013-01-25 18:10:00,66.6,36.5,30.19,WNW,293,3.6,3.6,33,0.00,CLR,,0.00,WeatherDisplay:10.37,2013-01-25 23:10:00,
2013-01-25 18:16:00,66.2,36.2,30.19,West,273,2.3,0.0,33,0.00,CLR,,0.00,WeatherDisplay:10.37,2013-01-25 23:16:00,
2013-01-25 18:21:00,65.8,36.7,30.19,West,273,0.0,0.0,34,0.00,CLR,,0.00,WeatherDisplay:10.37,2013-01-25 23:21:00,
2013-01-25 18:31:00,64.8,36.5,30.19,WNW,290,2.3,0.0,35,0.00,CLR,,0.00,WeatherDisplay:10.37,2013-01-25 23:31:00,
2013-01-25 18:36:00,64.4,36.8,30.19,West,277,0.0,0.0,36,0.00,CLR,,0.00,WeatherDisplay:10.37,2013-01-25 23:36:00,
2013-01-25 18:46:00,63.5,37.4,30.19,SSW,193,0.0,0.0,38,0.00,CLR,,0.00,WeatherDisplay:10.37,2013-01-25 23:46:00,
2013-01-25 18:51:00,63.1,37.1,30.19,West,274,0.0,0.0,38,0.00,CLR,,0.00,WeatherDisplay:10.37,2013-01-25 23:51:00,
2013-01-25 19:00:00,62.4,37.8,30.19,West,274,0.0,0.0,40,0.00,CLR,,0.00,WeatherDisplay:10.37,2013-01-26 00:00:00,
2013-01-25 19:01:00,61.5,37.6,30.19,West,274,0.0,0.0,41,0.00,CLR,,0.00,WeatherDisplay:10.37,2013-01-26 00:01:00,
2013-01-25 19:05:00,61.9,37.3,30.19,West,274,0.0,0.0,40,0.00,CLR,,0.00,WeatherDisplay:10.37,2013-01-26 00:05:00,
2013-01-25 19:10:00,61.5,37.6,30.19,West,274,0.0,0.0,41,0.00,CLR,,0.00,WeatherDisplay:10.37,2013-01-26 00:10:00,
2013-01-25 19:16:00,61.0,37.1,30.19,West,274,0.0,0.0,41,0.00,CLR,,0.00,WeatherDisplay:10.37,2013-01-26 00:16:00,
2013-01-25 19:21:00,60.6,38.0,30.19,West,274,0.0,0.0,43,0.00,CLR,,0.00,WeatherDisplay:10.37,2013-01-26 00:21:00,
2013-01-25 19:31:00,59.9,37.9,30.22,West,274,0.0,0.0,44,0.00,CLR,,0.00,WeatherDisplay:10.37,2013-01-26 00:31:00,
2013-01-25 19:36:00,59.5,37.6,30.22,West,274,0.0,0.0,44,0.00,CLR,,0.00,WeatherDisplay:10.37,2013-01-26 00:36:00,
2013-01-25 19:46:00,58.8,38.1,30.22,West,274,0.0,0.0,46,0.00,CLR,,0.00,WeatherDisplay:10.37,2013-01-26 00:46:00,
2013-01-25 19:51:00,58.5,37.7,30.22,West,274,0.0,0.0,46,0.00,CLR,,0.00,WeatherDisplay:10.37,2013-01-26 00:51:00,
2013-01-25 20:00:00,57.9,37.8,30.22,West,274,0.0,0.0,47,0.00,CLR,,0.00,WeatherDisplay:10.37,2013-01-26 01:00:00,
2013-01-25 20:01:00,57.6,38.0,30.22,West,274,0.0,0.0,48,0.00,CLR,,0.00,WeatherDisplay:10.37,2013-01-26 01:01:00,
2013-01-25 20:05:00,57.7,37.6,30.22,West,274,0.0,0.0,47,0.00,CLR,,0.00,WeatherDisplay:10.37,2013-01-26 01:05:00,
2013-01-25 20:10:00,57.6,38.0,30.22,West,274,0.0,0.0,48,0.00,CLR,,0.00,WeatherDisplay:10.37,2013-01-26 01:10:00,
2013-01-25 20:16:00,57.2,37.7,30.22,West,274,0.0,0.0,48,0.00,CLR,,0.00,WeatherDisplay:10.37,2013-01-26 01:16:00,
2013-01-25 20:21:00,56.8,37.9,30.22,West,274,0.0,0.0,49,0.00,CLR,,0.00,WeatherDisplay:10.37,2013-01-26 01:21:00,
2013-01-25 20:31:00,56.1,38.2,30.22,West,274,0.0,0.0,51,0.00,CLR,,0.00,WeatherDisplay:10.37,2013-01-26 01:31:00,
2013-01-25 20:36:00,55.8,37.9,30.22,West,274,0.0,0.0,51,0.00,CLR,,0.00,WeatherDisplay:10.37,2013-01-26 01:36:00,
2013-01-25 20:46:00,55.2,38.4,30.22,West,274,0.0,0.0,53,0.00,CLR,,0.00,WeatherDisplay:10.37,2013-01-26 01:46:00,
2013-01-25 20:51:00,55.0,38.2,30.22,West,274,0.0,0.0,53,0.00,CLR,,0.00,WeatherDisplay:10.37,2013-01-26 01:51:00,
2013-01-25 21:00:00,54.5,38.2,30.22,West,274,0.0,0.0,54,0.00,CLR,,0.00,WeatherDisplay:10.37,2013-01-26 02:00:00,
2013-01-25 21:01:00,54.1,38.3,30.22,West,274,0.0,0.0,55,0.00,CLR,,0.00,WeatherDisplay:10.37,2013-01-26 02:01:00,
2013-01-25 21:05:00,54.5,38.7,30.22,West,274,0.0,0.0,55,0.00,CLR,,0.00,WeatherDisplay:10.37,2013-01-26 02:05:00,
2013-01-25 21:10:00,54.1,38.3,30.22,West,274,0.0,0.0,55,0.00,CLR,,0.00,WeatherDisplay:10.37,2013-01-26 02:10:00,
2013-01-25 21:16:00,54.0,38.6,30.22,West,274,0.0,0.0,56,0.00,CLR,,0.00,WeatherDisplay:10.37,2013-01-26 02:16:00,
2013-01-25 21:21:00,53.8,38.4,30.22,West,274,0.0,0.0,56,0.00,CLR,,0.00,WeatherDisplay:10.37,2013-01-26 02:21:00,
2013-01-25 21:31:00,53.4,39.0,30.22,West,274,0.0,0.0,58,0.00,CLR,,0.00,WeatherDisplay:10.37,2013-01-26 02:31:00,
2013-01-25 21:36:00,53.4,39.4,30.22,West,274,0.0,0.0,59,0.00,CLR,,0.00,WeatherDisplay:10.37,2013-01-26 02:36:00,
2013-01-25 21:46:00,53.1,39.5,30.22,West,274,0.0,0.0,60,0.00,CLR,,0.00,WeatherDisplay:10.37,2013-01-26 02:46:00,
2013-01-25 21:51:00,52.9,39.4,30.22,West,274,0.0,0.0,60,0.00,CLR,,0.00,WeatherDisplay:10.37,2013-01-26 02:51:00,
2013-01-25 22:00:00,52.7,40.0,30.22,West,274,0.0,0.0,62,0.00,CLR,,0.00,WeatherDisplay:10.37,2013-01-26 03:00:00,
2013-01-25 22:01:00,52.7,40.9,30.22,West,274,0.0,0.0,64,0.00,CLR,,0.00,WeatherDisplay:10.37,2013-01-26 03:01:00,
2013-01-25 22:05:00,52.5,39.9,30.22,West,274,0.0,0.0,62,0.00,CLR,,0.00,WeatherDisplay:10.37,2013-01-26 03:05:00,
2013-01-25 22:10:00,52.7,40.5,30.22,West,274,0.0,0.0,63,0.00,CLR,,0.00,WeatherDisplay:10.37,2013-01-26 03:10:00,
2013-01-25 22:16:00,53.1,41.2,30.22,West,274,0.0,0.0,64,0.00,CLR,,0.00,WeatherDisplay:10.37,2013-01-26 03:16:00,
2013-01-25 22:21:00,53.1,41.6,30.22,WNW,295,0.0,0.0,65,0.00,CLR,,0.00,WeatherDisplay:10.37,2013-01-26 03:21:00,
2013-01-25 22:31:00,53.1,41.6,30.22,WNW,295,0.0,0.0,65,0.00,CLR,,0.00,WeatherDisplay:10.37,2013-01-26 03:31:00,
2013-01-25 22:36:00,52.9,41.8,30.22,WNW,295,0.0,0.0,66,0.00,CLR,,0.00,WeatherDisplay:10.37,2013-01-26 03:36:00,
2013-01-25 22:46:00,52.5,41.9,30.22,WNW,295,0.0,0.0,67,0.00,CLR,,0.00,WeatherDisplay:10.37,2013-01-26 03:46:00,
2013-01-25 22:51:00,52.3,42.1,30.22,WNW,295,0.0,0.0,68,0.00,CLR,,0.00,WeatherDisplay:10.37,2013-01-26 03:51:00,
2013-01-25 23:00:00,52.0,41.7,30.19,WNW,295,0.0,0.0,68,0.00,CLR,,0.00,WeatherDisplay:10.37,2013-01-26 04:00:00,
2013-01-25 23:01:00,52.0,42.1,30.19,WNW,295,0.0,0.0,69,0.00,CLR,,0.00,WeatherDisplay:10.37,2013-01-26 04:01:00,
2013-01-25 23:05:00,52.0,42.1,30.19,WNW,295,0.0,0.0,69,0.00,CLR,,0.00,WeatherDisplay:10.37,2013-01-26 04:05:00,
2013-01-25 23:10:00,52.0,42.1,30.19,WNW,295,0.0,0.0,69,0.00,CLR,,0.00,WeatherDisplay:10.37,2013-01-26 04:10:00,
2013-01-25 23:16:00,51.8,41.9,30.19,WNW,295,0.0,0.0,69,0.00,CLR,,0.00,WeatherDisplay:10.37,2013-01-26 04:16:00,
2013-01-25 23:21:00,51.8,41.9,30.19,WNW,295,0.0,0.0,69,0.00,CLR,,0.00,WeatherDisplay:10.37,2013-01-26 04:21:00,
2013-01-25 23:31:00,51.4,42.0,30.19,WNW,295,0.0,0.0,70,0.00,CLR,,0.00,WeatherDisplay:10.37,2013-01-26 04:31:00,
2013-01-25 23:36:00,51.4,42.0,30.19,WNW,295,0.0,0.0,70,0.00,CLR,,0.00,WeatherDisplay:10.37,2013-01-26 04:36:00,
2013-01-25 23:46:00,51.3,42.2,30.19,WNW,295,0.0,0.0,71,0.00,CLR,,0.00,WeatherDisplay:10.37,2013-01-26 04:46:00,
2013-01-25 23:51:00,51.3,42.2,30.19,WNW,295,0.0,0.0,71,0.00,CLR,,0.00,WeatherDisplay:10.37,2013-01-26 04:51:00,